Darstellungsparameter: Aktuell verwendete Einstellungen:
Skalierung der Graphiken ... ?
xyx+y,   Skalierungsfaktor:      Skalierung: Modus: x, Faktor: 1
Darstellungszeitraum ... ?
Vom - - bis: - -   Zeitraum: 01.09.2011 - 01.09.2011
Min/Max/Avg-Anzeige ... ?
Zeige MMA aktuell
Zeige MMA Monat
Zeige MMA alles
Zeige --A aktuell
Zeige --A Monat
Zeige --A alles
Keine MMA-Anzeige
MMA:
Average (ber die Originaldaten)
MMA-Basis: 01.09.2011 - 01.09.2011
Quicknavigation für Darstellung... ?
Tage:      1T, 2T, 3T, 5T -1T -2T -3T -5T +1T +2T +3T +5T
Wochen: 1W, 2W, 3W -1W -2W -3W +1W +2W +3W
Monate: 1M, 3M, 6M -1M -3M -6M +1M +3M +6M
Jahre:    1J, 3J, 5J, 10J -1J -3J -5J -10J +1J +3J +5J +10J
Nutze für die Darstellung ... ?
Originaldaten oder Mittelwerte auf ...
Stundenbasis Tagesbasis Wochenbasis
Monatsbasis Jahresbasis      Datenbasis: Original-Daten
Darstellen als:
Statistik (Auto) Statistik J:M      Darstellung:
Zur Graphik,    zurück zur Übersicht aller Sensoren.
 
Tabellarische Datenbersicht: ?
 
Sensor: Nr:Datum:Temp:Abs-Feuchte:Windchill:Wind:
Aussen-T/F 1 01-09-2011 00:09:49 10.2 C 7.9 g/m*3 10.2 C 0 km/h
2 01-09-2011 00:21:49 9.8 C 7.89 g/m*3 9.8 C 0 km/h
3 01-09-2011 00:33:49 9.4 C 7.6 g/m*3 9.4 C 0 km/h
4 01-09-2011 00:45:49 9.2 C 7.5 g/m*3 9.2 C 0 km/h
5 01-09-2011 00:57:49 9.3 C 7.64 g/m*3 9.3 C 0 km/h
6 01-09-2011 01:09:49 9.2 C 7.68 g/m*3 9.2 C 0 km/h
7 01-09-2011 01:21:49 8.8 C 7.57 g/m*3 8.8 C 0 km/h
8 01-09-2011 01:33:49 8.8 C 7.57 g/m*3 8.8 C 0 km/h
9 01-09-2011 01:45:49 8.7 C 7.61 g/m*3 8.7 C 0 km/h
10 01-09-2011 01:57:49 8.6 C 7.56 g/m*3 8.6 C 0 km/h
11 01-09-2011 02:09:49 8.7 C 7.61 g/m*3 8.7 C 0 km/h
12 01-09-2011 02:21:49 8.5 C 7.51 g/m*3 8.5 C 0 km/h
13 01-09-2011 02:33:49 8.4 C 7.47 g/m*3 8.4 C 0 km/h
14 01-09-2011 02:45:49 8.4 C 7.47 g/m*3 8.4 C 0 km/h
15 01-09-2011 02:57:49 8.3 C 7.5 g/m*3 8.3 C 0 km/h
16 01-09-2011 03:09:49 8.4 C 7.55 g/m*3 8.4 C 0 km/h
17 01-09-2011 03:21:49 8.3 C 7.5 g/m*3 8.3 C 0 km/h
18 01-09-2011 03:33:49 8 C 7.36 g/m*3 8 C 0 km/h
19 01-09-2011 03:45:49 7.9 C 7.39 g/m*3 7.9 C 0 km/h
20 01-09-2011 03:57:49 7.7 C 7.3 g/m*3 7.7 C 0 km/h
21 01-09-2011 04:09:49 7.9 C 7.39 g/m*3 7.9 C 0 km/h
22 01-09-2011 04:21:50 7.9 C 7.39 g/m*3 7.9 C 0 km/h
23 01-09-2011 04:33:50 7.8 C 7.35 g/m*3 7.8 C 0 km/h
24 01-09-2011 04:45:50 7.6 C 7.25 g/m*3 7.6 C 0 km/h
25 01-09-2011 04:57:50 7.8 C 7.35 g/m*3 7.8 C 0 km/h
Sensor: Nr:Datum:Temp:Abs-Feuchte:Windchill:Wind:
Aussen-T/F 26 01-09-2011 05:09:50 7.5 C 7.2 g/m*3 7.5 C 0 km/h
27 01-09-2011 05:21:50 7.7 C 7.3 g/m*3 7.7 C 0 km/h
28 01-09-2011 05:33:50 7.4 C 7.16 g/m*3 7.4 C 0 km/h
29 01-09-2011 05:45:50 7.9 C 7.47 g/m*3 7.9 C 0 km/h
30 01-09-2011 05:57:50 7.4 C 7.24 g/m*3 7.4 C 0 km/h
31 01-09-2011 06:09:50 7.3 C 7.19 g/m*3 7.3 C 0 km/h
32 01-09-2011 06:21:50 7.2 C 7.14 g/m*3 7.2 C 0 km/h
33 01-09-2011 06:33:50 7.2 C 7.14 g/m*3 7.2 C 0 km/h
34 01-09-2011 06:45:50 7.2 C 7.14 g/m*3 7.2 C 0 km/h
35 01-09-2011 06:57:50 7.2 C 7.14 g/m*3 7.2 C 0 km/h
36 01-09-2011 07:09:04 7.6 C 7.33 g/m*3 7.6 C 0 km/h
37 01-09-2011 07:21:03 7.5 C 7.28 g/m*3 7.5 C 0 km/h
38 01-09-2011 07:33:02 7.9 C 7.56 g/m*3 7.9 C 0 km/h
39 01-09-2011 07:45:02 8.4 C 7.72 g/m*3 8.4 C 0 km/h
40 01-09-2011 07:57:02 8.7 C 7.87 g/m*3 8.7 C 0 km/h
41 01-09-2011 08:09:01 9 C 7.93 g/m*3 9 C 0 km/h
42 01-09-2011 08:21:02 9.1 C 7.99 g/m*3 9.1 C 0 km/h
43 01-09-2011 08:33:02 9.4 C 8.14 g/m*3 9.4 C 0 km/h
44 01-09-2011 08:45:01 9.3 C 8.09 g/m*3 9.3 C 0 km/h
45 01-09-2011 08:57:01 9.7 C 8.3 g/m*3 9.7 C 0 km/h
46 01-09-2011 09:09:02 9.7 C 8.2 g/m*3 9.7 C 0 km/h
47 01-09-2011 09:21:01 10.1 C 8.32 g/m*3 10.1 C 0 km/h
48 01-09-2011 09:33:02 10.2 C 8.28 g/m*3 10.2 C 0 km/h
49 01-09-2011 09:45:02 10.4 C 8.29 g/m*3 10.4 C 0 km/h
50 01-09-2011 09:57:02 10.7 C 8.45 g/m*3 10.7 C 0 km/h
Sensor: Nr:Datum:Temp:Abs-Feuchte:Windchill:Wind:
Aussen-T/F 51 01-09-2011 10:09:02 10.9 C 8.45 g/m*3 10.9 C 0 km/h
52 01-09-2011 10:21:02 11.2 C 8.51 g/m*3 11.2 C 0 km/h
53 01-09-2011 10:33:02 11.4 C 8.62 g/m*3 11.4 C 0 km/h
54 01-09-2011 10:45:02 11.6 C 8.83 g/m*3 11.6 C 0 km/h
55 01-09-2011 10:57:02 12 C 9.06 g/m*3 12 C 0 km/h
56 01-09-2011 11:09:02 12.3 C 9.23 g/m*3 12.3 C 0 km/h
57 01-09-2011 11:21:02 12.7 C 9.46 g/m*3 12.7 C 0 km/h
58 01-09-2011 11:33:02 13.1 C 9.59 g/m*3 13.1 C 0 km/h
59 01-09-2011 11:45:02 14.2 C 10.01 g/m*3 14.2 C 0 km/h
60 01-09-2011 11:57:02 14.8 C 9.5 g/m*3 14.8 C 0 km/h
61 01-09-2011 12:09:03 15.4 C 9.59 g/m*3 15.4 C 0 km/h
62 01-09-2011 12:21:02 16 C 9.4 g/m*3 16 C 0 km/h
63 01-09-2011 12:33:02 16.4 C 9.07 g/m*3 16.4 C 0 km/h
64 01-09-2011 12:45:02 16.8 C 8.72 g/m*3 16.8 C 0 km/h
65 01-09-2011 12:57:02 17.3 C 8.69 g/m*3 17.3 C 0 km/h
66 01-09-2011 13:09:02 17.9 C 8.24 g/m*3 17.9 C 0 km/h
67 01-09-2011 13:21:01 18.6 C 7.32 g/m*3 18.6 C 0 km/h
68 01-09-2011 13:33:02 19.1 C 7.21 g/m*3 19.1 C 0 km/h
69 01-09-2011 13:45:02 19.6 C 7.09 g/m*3 19.6 C 0 km/h
70 01-09-2011 13:57:02 21.8 C 6.72 g/m*3 21.8 C 0 km/h
71 01-09-2011 14:09:02 22.5 C 6.99 g/m*3 22.5 C 0 km/h
72 01-09-2011 14:21:01 23.1 C 6.41 g/m*3 23.1 C 0 km/h
73 01-09-2011 14:33:02 21.6 C 6.64 g/m*3 21.6 C 0 km/h
74 01-09-2011 14:45:02 22.9 C 6.34 g/m*3 22.9 C 0 km/h
75 01-09-2011 14:57:02 25.6 C 6.19 g/m*3 25.6 C 0 km/h
Sensor: Nr:Datum:Temp:Abs-Feuchte:Windchill:Wind:
Aussen-T/F 76 01-09-2011 15:09:02 28.3 C 5.53 g/m*3 28.3 C 0 km/h
77 01-09-2011 15:21:01 29.4 C 6.16 g/m*3 29.4 C 0 km/h
78 01-09-2011 15:33:02 27.7 C 5.35 g/m*3 27.7 C 0 km/h
79 01-09-2011 15:45:01 29 C 5.74 g/m*3 29 C 0 km/h
80 01-09-2011 15:57:01 28.9 C 6.28 g/m*3 28.9 C 0 km/h
81 01-09-2011 16:09:02 30.4 C 6.82 g/m*3 30.4 C 0 km/h
82 01-09-2011 16:21:02 29.7 C 5.97 g/m*3 29.7 C 0 km/h
83 01-09-2011 16:33:02 29.4 C 5.87 g/m*3 29.4 C 0 km/h
84 01-09-2011 16:45:02 28.7 C 5.65 g/m*3 28.7 C 0 km/h
85 01-09-2011 16:57:02 28.7 C 5.65 g/m*3 28.7 C 0 km/h
86 01-09-2011 17:09:02 30.4 C 6.82 g/m*3 30.4 C 0 km/h
87 01-09-2011 17:21:02 30.3 C 6.16 g/m*3 30.3 C 0 km/h
88 01-09-2011 17:33:02 28.7 C 5.65 g/m*3 28.7 C 0 km/h
89 01-09-2011 17:45:03 29.6 C 5.94 g/m*3 29.6 C 0 km/h
90 01-09-2011 17:57:03 28.5 C 5.59 g/m*3 28.5 C 0 km/h
91 01-09-2011 18:09:02 28.3 C 5.81 g/m*3 28.3 C 0 km/h
92 01-09-2011 18:21:02 27.7 C 7.49 g/m*3 27.7 C 0 km/h
93 01-09-2011 18:33:02 27.4 C 7.89 g/m*3 27.4 C 0 km/h
94 01-09-2011 18:45:02 26.6 C 7.8 g/m*3 26.6 C 0 km/h
95 01-09-2011 18:57:02 26.6 C 7.8 g/m*3 26.6 C 0 km/h
96 01-09-2011 19:09:02 26.6 C 7.8 g/m*3 26.6 C 0 km/h
97 01-09-2011 19:21:01 26.6 C 7.8 g/m*3 26.6 C 0 km/h
98 01-09-2011 19:33:02 19.7 C 8.83 g/m*3 19.7 C 0 km/h
99 01-09-2011 19:45:02 19 C 8.64 g/m*3 19 C 0 km/h
100 01-09-2011 19:57:02 18.7 C 8.65 g/m*3 18.7 C 0 km/h
Sensor: Nr:Datum:Temp:Abs-Feuchte:Windchill:Wind:
Aussen-T/F 101 01-09-2011 20:09:02 18.7 C 8.65 g/m*3 18.7 C 0 km/h
102 01-09-2011 20:21:02 18.7 C 8.65 g/m*3 18.7 C 0 km/h
103 01-09-2011 20:33:02 18.7 C 8.65 g/m*3 18.7 C 0 km/h
104 01-09-2011 20:45:02 16.4 C 8.51 g/m*3 16.4 C 0 km/h
105 01-09-2011 20:57:02 15.7 C 8.3 g/m*3 15.7 C 0 km/h
106 01-09-2011 21:09:02 15.5 C 8.46 g/m*3 15.5 C 0 km/h
107 01-09-2011 21:21:02 15.3 C 8.88 g/m*3 15.3 C 0 km/h
108 01-09-2011 21:34:04 14.5 C 8.71 g/m*3 14.5 C 0 km/h
109 01-09-2011 21:46:04 14.2 C 8.79 g/m*3 14.2 C 0 km/h
110 01-09-2011 21:58:04 13.9 C 8.99 g/m*3 13.9 C 0 km/h
111 01-09-2011 22:10:04 13.5 C 8.77 g/m*3 13.5 C 0 km/h
112 01-09-2011 22:22:04 13.1 C 8.67 g/m*3 13.1 C 0 km/h
113 01-09-2011 22:34:04 13.2 C 8.84 g/m*3 13.2 C 0 km/h
114 01-09-2011 22:46:04 13 C 8.96 g/m*3 13 C 0 km/h
115 01-09-2011 22:58:04 12.9 C 9.02 g/m*3 12.9 C 0 km/h
116 01-09-2011 23:10:04 13 C 9.07 g/m*3 13 C 0 km/h
117 01-09-2011 23:22:04 12.9 C 9.13 g/m*3 12.9 C 0 km/h
118 01-09-2011 23:34:04 12.6 C 8.96 g/m*3 12.6 C 0 km/h
119 01-09-2011 23:46:04 12.4 C 8.85 g/m*3 12.4 C 0 km/h
120 01-09-2011 23:58:04 12.1 C 8.79 g/m*3 12.1 C 0 km/h

Legende:
   Min
   Max


Maximal/Minimal-Werte vom 01.09.2011 - 01.09.2011

Sensor Min Max Avg
Temp
(Aussen-T/F)
7.2 °C
01-09-2011  06:21:50
30.4 °C
01-09-2011  16:09:02
15.16 °C
Abs-Feuchte
(Aussen-T/F)
5.35 g/m*3
01-09-2011  15:33:02
10.01 g/m*3
01-09-2011  11:45:02
7.68 g/m*3
Windchill
(Aussen-T/F)
7.2 C
01-09-2011  06:21:50
30.4 C
01-09-2011  16:09:02
15.04 C

Die Daten stammen von einer Davis Vantage Pro 2 Wetter-Station und werden unter Linux mit der Software wview2wettercgi und aufbereitet. Alle Angaben erfolgen ohne Gewähr für ihre Vollständigkeit oder Richtigkeit.
Kontakt: Rainer Krienke krienke@uni-koblenz.de . Meine Webseiten an der Uni Koblenz oder privat.
Version: $Revision: 0.78 $